Time;durP1;ratioP1;P1;durP2;ratioP2;P2;SDS_P1;SDS_P2;PMS_P1;PMS_P2;Temp;Humidity;BMP_temperature;BMP_pressure;BME280_temperature;BME280_humidity;BME280_pressure;Samples;Min_cycle;Max_cycle;Signal;HPM_P1;HPM_P2
2022/12/15 00:39:24;;;;;;;5.10;4.68;;;-0.40;99.90;;;;;;5030733;28;20282;-77
2022/12/15 00:41:51;;;;;;;5.60;5.20;;;-0.40;99.90;;;;;;5026792;28;20231;-76
2022/12/15 00:44:19;;;;;;;6.10;5.60;;;-0.50;99.90;;;;;;5023803;28;20595;-77
2022/12/15 00:46:57;;;;;;;4.85;4.55;;;-0.50;99.90;;;;;;5025632;28;20221;-76
2022/12/15 01:22:29;;;;;;;5.60;5.20;;;-0.60;99.90;;;;;;5024968;28;20715;-77
2022/12/15 01:24:56;;;;;;;5.22;4.93;;;-0.60;99.90;;;;;;5026123;28;20227;-80
2022/12/15 01:27:23;;;;;;;5.47;5.07;;;-0.70;99.90;;;;;;5019791;28;20215;-77
2022/12/15 01:29:52;;;;;;;5.72;5.32;;;-0.70;99.90;;;;;;5023836;28;20204;-80
2022/12/15 01:32:20;;;;;;;5.70;5.30;;;-0.70;99.90;;;;;;5046899;28;20225;-80
2022/12/15 01:34:49;;;;;;;5.18;4.78;;;-0.60;99.90;;;;;;5019860;28;20220;-77
2022/12/15 01:37:16;;;;;;;5.60;5.20;;;-0.60;99.90;;;;;;5027017;28;20223;-80
2022/12/15 01:42:28;;;;;;;5.60;5.20;;;-0.60;99.90;;;;;;5026042;28;20698;-77
2022/12/15 01:45:32;;;;;;;6.20;5.70;;;-0.60;99.90;;;;;;5020045;28;20223;-77
2022/12/15 01:48:04;;;;;;;5.43;5.03;;;-0.60;99.90;;;;;;5043341;28;20293;-78
2022/12/15 01:50:39;;;;;;;5.80;5.40;;;-0.60;99.90;;;;;;5038780;28;22217;-77
2022/12/15 01:53:08;;;;;;;5.80;5.40;;;-0.70;99.90;;;;;;5042903;28;20205;-77
2022/12/15 01:55:38;;;;;;;5.50;5.10;;;-0.60;99.90;;;;;;5043226;28;20222;-76
2022/12/15 01:58:08;;;;;;;5.72;5.32;;;-0.60;99.90;;;;;;5048822;28;20199;-80
2022/12/15 02:00:35;;;;;;;4.95;4.65;;;-0.60;99.90;;;;;;5041311;28;20191;-78
2022/12/15 02:03:04;;;;;;;5.00;4.70;;;-0.60;99.90;;;;;;5047073;28;20800;-78
2022/12/15 02:05:34;;;;;;;4.85;4.55;;;-0.60;99.90;;;;;;5047390;28;20219;-80
2022/12/15 02:08:02;;;;;;;5.70;5.20;;;-0.60;99.90;;;;;;5042820;28;20199;-77
2022/12/15 02:10:37;;;;;;;5.43;5.03;;;-0.60;99.90;;;;;;5047425;28;20198;-78
2022/12/15 02:13:12;;;;;;;6.13;5.57;;;-0.60;99.90;;;;;;5048155;28;20201;-80
2022/12/15 02:15:46;;;;;;;5.28;4.93;;;-0.60;99.90;;;;;;5044362;28;20234;-77
2022/12/15 02:18:22;;;;;;;5.63;5.22;;;-0.60;99.90;;;;;;5039835;28;20199;-77
2022/12/15 02:20:57;;;;;;;4.95;4.65;;;-0.60;99.90;;;;;;5050889;28;20229;-78
2022/12/15 02:24:19;;;;;;;5.40;5.00;;;-0.60;99.90;;;;;;5044214;28;20198;-77
2022/12/15 02:27:13;;;;;;;5.00;4.70;;;-0.60;99.90;;;;;;5005931;28;20221;-77
2022/12/15 02:30:21;;;;;;;5.65;5.25;;;-0.50;99.90;;;;;;5024911;28;20662;-78
2022/12/15 02:32:57;;;;;;;5.22;4.82;;;-0.50;99.90;;;;;;5004933;28;20303;-78
2022/12/15 02:35:31;;;;;;;6.20;5.70;;;-0.60;99.90;;;;;;5027199;28;20217;-80
2022/12/15 02:37:59;;;;;;;6.18;5.57;;;-0.60;99.90;;;;;;5026969;28;20204;-79
2022/12/15 02:40:26;;;;;;;7.00;6.45;;;-0.70;99.90;;;;;;5033739;28;20234;-77
2022/12/15 02:42:56;;;;;;;7.03;6.43;;;-0.70;99.90;;;;;;5024993;28;20314;-78
2022/12/15 02:45:32;;;;;;;6.93;6.43;;;-0.80;99.90;;;;;;5025573;28;20242;-77
2022/12/15 02:48:12;;;;;;;6.53;6.03;;;-0.90;99.90;;;;;;5030701;28;20192;-78
2022/12/15 02:51:02;;;;;;;5.82;5.38;;;-0.90;99.90;;;;;;5023609;28;20199;-77
2022/12/15 02:53:57;;;;;;;6.00;5.60;;;-0.90;99.90;;;;;;5029225;28;20582;-78
2022/12/15 02:56:32;;;;;;;5.70;5.32;;;-0.90;99.90;;;;;;5017354;28;20223;-77
2022/12/15 02:59:04;;;;;;;6.00;5.60;;;-1.00;99.90;;;;;;5029610;28;20192;-78
2022/12/15 03:01:37;;;;;;;5.75;5.35;;;-1.00;99.90;;;;;;5028944;28;20874;-78
2022/12/15 03:04:07;;;;;;;5.25;4.95;;;-1.00;99.90;;;;;;5026712;28;21257;-78
2022/12/15 03:06:34;;;;;;;4.63;4.32;;;-1.00;99.90;;;;;;5020273;28;20227;-79
2022/12/15 03:09:01;;;;;;;5.50;5.07;;;-1.00;99.90;;;;;;5027513;28;20710;-77
2022/12/15 03:11:29;;;;;;;5.30;4.90;;;-1.00;99.90;;;;;;5027762;28;20281;-78
2022/12/15 03:13:56;;;;;;;5.32;4.93;;;-1.00;99.90;;;;;;5020617;28;20634;-77
2022/12/15 03:16:23;;;;;;;5.60;5.20;;;-1.00;99.90;;;;;;5029484;28;20618;-76
2022/12/15 03:18:52;;;;;;;5.10;4.80;;;-1.00;99.90;;;;;;5026044;28;20223;-78
2022/12/15 03:21:19;;;;;;;5.55;5.15;;;-0.90;99.90;;;;;;5035382;28;20223;-79
2022/12/15 03:23:46;;;;;;;5.28;4.95;;;-0.90;99.90;;;;;;5028296;28;20205;-77
2022/12/15 03:26:13;;;;;;;5.40;5.07;;;-0.90;99.90;;;;;;5023711;28;20269;-80
2022/12/15 03:28:41;;;;;;;5.82;5.43;;;-0.90;99.90;;;;;;5026279;28;20204;-77
2022/12/15 03:31:08;;;;;;;5.32;4.93;;;-0.90;99.90;;;;;;5027169;28;20224;-78
2022/12/15 03:33:35;;;;;;;5.80;5.40;;;-0.90;99.90;;;;;;5024994;28;20206;-78
2022/12/15 03:36:04;;;;;;;5.57;5.18;;;-0.90;99.90;;;;;;5024654;28;20216;-78
2022/12/15 03:38:31;;;;;;;5.60;5.20;;;-0.90;99.90;;;;;;5025620;28;20199;-77
2022/12/15 03:40:59;;;;;;;5.75;5.30;;;-0.90;99.90;;;;;;5027015;28;20234;-78
2022/12/15 03:43:26;;;;;;;5.10;4.80;;;-0.90;99.90;;;;;;5021450;28;20207;-77
2022/12/15 03:45:53;;;;;;;5.82;5.38;;;-0.90;99.90;;;;;;5025813;28;20214;-77
2022/12/15 03:48:20;;;;;;;5.85;5.45;;;-0.90;99.90;;;;;;5026176;28;20212;-79
2022/12/15 03:50:48;;;;;;;5.35;5.05;;;-0.90;99.90;;;;;;5024994;28;20222;-77
2022/12/15 03:53:20;;;;;;;5.80;5.40;;;-0.90;99.90;;;;;;5024245;28;20629;-77
2022/12/15 03:55:47;;;;;;;6.07;5.60;;;-0.90;99.90;;;;;;5022203;28;20697;-76
2022/12/15 03:58:14;;;;;;;5.72;5.32;;;-0.90;99.90;;;;;;5030130;28;20439;-78
2022/12/15 04:00:41;;;;;;;5.65;5.25;;;-0.90;99.90;;;;;;5022171;28;20230;-77
2022/12/15 04:03:10;;;;;;;4.75;4.45;;;-0.90;99.90;;;;;;5021808;28;20208;-77
2022/12/15 04:05:37;;;;;;;5.78;5.38;;;-0.90;99.90;;;;;;5017749;28;20215;-77
2022/12/15 04:08:05;;;;;;;5.25;4.75;;;-0.90;99.90;;;;;;5025060;28;20199;-78
2022/12/15 04:10:35;;;;;;;5.88;5.47;;;-0.90;99.90;;;;;;5019634;28;20204;-80
2022/12/15 04:13:04;;;;;;;5.43;4.97;;;-0.90;99.90;;;;;;5019826;28;20554;-77
2022/12/15 04:15:31;;;;;;;5.25;4.95;;;-0.90;99.90;;;;;;5039821;28;20200;-78
2022/12/15 04:17:58;;;;;;;5.63;5.22;;;-0.90;99.90;;;;;;5031299;28;20662;-77
2022/12/15 04:20:25;;;;;;;5.65;5.25;;;-0.90;99.90;;;;;;5026870;28;20196;-77
2022/12/15 04:22:52;;;;;;;6.15;5.70;;;-0.90;99.90;;;;;;5027276;28;20203;-77
2022/12/15 05:31:51;;;;;;;6.07;5.68;;;-1.10;99.90;;;;;;5026426;28;20759;-77
2022/12/15 05:34:21;;;;;;;6.47;6.00;;;-1.10;99.90;;;;;;5025835;28;20205;-79
2022/12/15 05:36:48;;;;;;;7.40;6.80;;;-1.10;99.90;;;;;;5024710;28;20668;-78
2022/12/15 05:39:15;;;;;;;6.68;6.18;;;-1.20;99.90;;;;;;5029841;28;20199;-79
2022/12/15 05:41:42;;;;;;;6.30;5.82;;;-1.10;99.90;;;;;;5027964;28;20737;-79
2022/12/15 05:44:09;;;;;;;7.43;6.78;;;-1.10;99.90;;;;;;5023000;28;20212;-78
2022/12/15 05:46:36;;;;;;;6.30;5.88;;;-1.20;99.90;;;;;;5028825;28;20215;-78
2022/12/15 05:49:04;;;;;;;6.35;5.78;;;-1.30;99.90;;;;;;5031147;28;20196;-78
2022/12/15 05:51:33;;;;;;;5.95;5.55;;;-1.50;99.90;;;;;;5025318;28;20232;-78
2022/12/15 05:54:00;;;;;;;6.43;5.88;;;-1.50;99.90;;;;;;5023495;28;20197;-78
2022/12/15 05:56:29;;;;;;;6.18;5.70;;;-1.50;99.90;;;;;;5029552;28;20218;-78
2022/12/15 05:58:57;;;;;;;6.88;6.28;;;-1.50;99.90;;;;;;5029647;28;20662;-78
2022/12/15 06:01:27;;;;;;;6.43;5.93;;;-1.50;99.90;;;;;;5030017;28;20302;-78
2022/12/15 06:03:54;;;;;;;6.53;6.03;;;-1.50;99.90;;;;;;5025405;28;20203;-77
2022/12/15 06:06:21;;;;;;;6.40;5.80;;;-1.50;99.90;;;;;;5041685;28;20232;-78
2022/12/15 06:08:50;;;;;;;6.30;5.78;;;-1.50;99.90;;;;;;5032259;28;20207;-78
2022/12/15 06:11:18;;;;;;;6.20;5.22;;;-1.40;99.90;;;;;;5032666;28;20219;-79
2022/12/15 06:13:46;;;;;;;6.93;6.20;;;-1.40;99.90;;;;;;5021770;28;20204;-78
2022/12/15 06:16:15;;;;;;;6.28;5.78;;;-1.40;99.90;;;;;;5029338;28;20716;-78
2022/12/15 06:18:45;;;;;;;6.80;6.30;;;-1.50;99.90;;;;;;5026354;28;20200;-78
2022/12/15 06:21:15;;;;;;;6.15;5.65;;;-1.40;99.90;;;;;;5027262;28;20231;-78
2022/12/15 06:23:42;;;;;;;6.85;6.35;;;-1.40;99.90;;;;;;5029886;28;20274;-78
2022/12/15 06:26:13;;;;;;;6.78;6.28;;;-1.40;99.90;;;;;;5029556;28;20227;-78
2022/12/15 06:28:40;;;;;;;7.57;7.07;;;-1.40;99.90;;;;;;5027010;28;20326;-78
2022/12/15 06:31:09;;;;;;;6.85;6.30;;;-1.40;99.90;;;;;;5024023;28;20230;-78
2022/12/15 06:33:37;;;;;;;7.10;6.60;;;-1.40;99.90;;;;;;5027772;28;20223;-79
2022/12/15 06:36:06;;;;;;;6.90;6.30;;;-1.40;99.90;;;;;;5030556;28;20232;-78
2022/12/15 06:38:34;;;;;;;7.22;6.65;;;-1.40;99.90;;;;;;5030996;28;20198;-78
2022/12/15 06:41:01;;;;;;;6.97;6.38;;;-1.30;99.90;;;;;;5033905;28;20212;-78
2022/12/15 06:43:31;;;;;;;6.70;6.15;;;-1.30;99.90;;;;;;5022986;28;20196;-77
2022/12/15 06:45:59;;;;;;;6.13;5.63;;;-1.40;99.90;;;;;;5026980;28;20323;-76
2022/12/15 06:48:27;;;;;;;7.90;7.25;;;-1.40;99.90;;;;;;5029545;28;20550;-79
2022/12/15 06:50:54;;;;;;;6.38;5.88;;;-1.40;99.90;;;;;;5024385;28;20220;-78
2022/12/15 06:53:24;;;;;;;6.93;6.43;;;-1.40;99.90;;;;;;5033686;28;20203;-78
2022/12/15 06:55:51;;;;;;;6.75;6.25;;;-1.30;99.90;;;;;;5031359;28;20224;-78
2022/12/15 06:58:19;;;;;;;6.75;6.25;;;-1.30;99.90;;;;;;5027751;28;20199;-79
2022/12/15 07:00:47;;;;;;;6.40;5.90;;;-1.40;99.90;;;;;;5027921;28;20228;-78
2022/12/15 07:03:16;;;;;;;9.50;8.52;;;-1.30;99.90;;;;;;5019926;28;20207;-78
2022/12/15 07:05:44;;;;;;;7.75;6.95;;;-1.30;99.90;;;;;;5023779;28;20855;-78
2022/12/15 07:08:11;;;;;;;9.45;8.55;;;-1.40;99.90;;;;;;5029473;28;20207;-78
2022/12/15 07:10:40;;;;;;;9.65;8.65;;;-1.40;99.90;;;;;;5019846;28;20210;-77
2022/12/15 07:13:09;;;;;;;9.77;8.80;;;-1.40;99.90;;;;;;5022588;28;20219;-78
2022/12/15 07:15:36;;;;;;;9.35;8.45;;;-1.30;99.90;;;;;;5018007;28;20226;-76
2022/12/15 07:18:06;;;;;;;8.90;8.02;;;-1.30;99.90;;;;;;5024415;28;20654;-77
2022/12/15 07:20:33;;;;;;;9.10;8.30;;;-1.30;99.90;;;;;;5026934;28;20200;-78
2022/12/15 07:23:02;;;;;;;9.32;8.52;;;-1.20;99.90;;;;;;5023651;28;20202;-77
2022/12/15 07:25:29;;;;;;;8.00;7.40;;;-1.10;99.90;;;;;;5027157;28;20732;-77
2022/12/15 07:27:56;;;;;;;7.97;7.18;;;-1.10;99.90;;;;;;5026153;28;20195;-77
2022/12/15 07:30:25;;;;;;;7.47;6.82;;;-1.00;99.90;;;;;;5019013;28;20192;-77
2022/12/15 07:32:52;;;;;;;7.55;6.93;;;-0.90;99.90;;;;;;5019923;28;20283;-78
2022/12/15 07:35:20;;;;;;;8.40;7.72;;;-0.90;99.90;;;;;;5014428;28;20239;-78
2022/12/15 07:37:47;;;;;;;8.07;7.28;;;-0.80;99.90;;;;;;5019714;28;20578;-77
2022/12/15 07:40:14;;;;;;;7.72;7.13;;;-0.80;99.90;;;;;;5015792;28;20277;-78
2022/12/15 07:42:41;;;;;;;8.88;8.07;;;-0.70;99.90;;;;;;5022919;28;20590;-79
2022/12/15 07:45:10;;;;;;;8.27;7.47;;;-0.70;99.90;;;;;;5032249;28;20219;-79
2022/12/15 07:47:38;;;;;;;7.97;7.28;;;-0.70;99.90;;;;;;5024371;28;20768;-77
2022/12/15 07:50:06;;;;;;;7.45;6.85;;;-0.50;99.90;;;;;;5027703;28;20845;-79
2022/12/15 07:52:34;;;;;;;8.40;7.70;;;-0.50;99.90;;;;;;5031530;28;20207;-78
2022/12/15 07:55:01;;;;;;;8.15;7.38;;;-0.40;99.90;;;;;;5040483;28;20230;-77
2022/12/15 07:57:28;;;;;;;7.60;6.90;;;-0.30;99.90;;;;;;5021774;28;20223;-77
2022/12/15 07:59:55;;;;;;;8.52;7.93;;;-0.30;99.90;;;;;;5012509;28;20199;-77
2022/12/15 08:02:23;;;;;;;7.78;7.10;;;-0.20;99.90;;;;;;5022982;28;20242;-77
2022/12/15 08:04:50;;;;;;;7.70;7.00;;;-0.10;99.90;;;;;;5022637;28;20844;-78
2022/12/15 08:07:17;;;;;;;7.88;7.20;;;-0.10;99.90;;;;;;5022594;28;20222;-78
2022/12/15 08:09:47;;;;;;;8.07;7.43;;;0.00;99.90;;;;;;5022913;28;20195;-77
2022/12/15 08:12:15;;;;;;;8.55;7.65;;;0.00;99.90;;;;;;5030344;28;20223;-78
2022/12/15 08:14:42;;;;;;;8.80;7.68;;;0.00;99.90;;;;;;5020331;28;20215;-78
2022/12/15 08:17:10;;;;;;;8.50;7.70;;;0.00;99.90;;;;;;5021768;28;20223;-78
2022/12/15 08:19:37;;;;;;;9.00;8.20;;;0.00;99.90;;;;;;5026140;28;20195;-78
2022/12/15 08:22:04;;;;;;;9.23;7.55;;;0.10;99.90;;;;;;5012680;28;20212;-78
2022/12/15 08:24:31;;;;;;;7.68;6.97;;;0.10;99.90;;;;;;5020978;28;20227;-77
2022/12/15 08:26:59;;;;;;;8.15;7.30;;;0.10;99.90;;;;;;5019805;28;20227;-75
2022/12/15 08:29:26;;;;;;;8.73;7.55;;;0.10;99.90;;;;;;5026527;28;20191;-78
2022/12/15 08:31:53;;;;;;;7.50;6.78;;;0.10;99.90;;;;;;5021238;28;20235;-78
2022/12/15 08:34:21;;;;;;;6.95;6.45;;;0.10;99.90;;;;;;5011819;28;20209;-78
2022/12/15 08:36:48;;;;;;;9.77;8.07;;;0.10;99.90;;;;;;5026450;28;20242;-79
2022/12/15 08:39:15;;;;;;;15.07;13.63;;;0.10;99.90;;;;;;5036732;28;20208;-81
2022/12/15 08:41:42;;;;;;;13.20;11.40;;;0.10;99.90;;;;;;5032875;28;20318;-81
2022/12/15 08:44:10;;;;;;;13.32;10.63;;;0.10;99.90;;;;;;5032456;28;20291;-80
2022/12/15 08:46:37;;;;;;;11.80;9.90;;;0.20;99.90;;;;;;5047190;28;20202;-82
2022/12/15 08:49:05;;;;;;;10.20;8.90;;;0.30;99.90;;;;;;5050832;28;20223;-80
2022/12/15 08:51:33;;;;;;;9.90;8.98;;;0.30;99.90;;;;;;5043666;28;20272;-80
2022/12/15 08:54:01;;;;;;;10.18;9.15;;;0.30;99.90;;;;;;5048118;28;20203;-79
2022/12/15 08:56:28;;;;;;;9.82;8.57;;;0.30;99.90;;;;;;5036740;28;20219;-79
2022/12/15 08:58:57;;;;;;;9.32;8.25;;;0.30;99.90;;;;;;5044578;28;20191;-80
2022/12/15 09:01:28;;;;;;;7.82;7.10;;;0.40;99.90;;;;;;5046140;28;20234;-79
2022/12/15 09:03:57;;;;;;;8.90;8.05;;;0.30;99.90;;;;;;5051087;28;20194;-79
2022/12/15 09:06:26;;;;;;;8.52;7.82;;;0.40;99.90;;;;;;5046167;28;20238;-81
2022/12/15 09:08:55;;;;;;;7.85;7.15;;;0.40;99.90;;;;;;5034498;28;20207;-81
2022/12/15 09:11:22;;;;;;;8.73;7.93;;;0.40;99.90;;;;;;5052615;28;20249;-80
2022/12/15 09:13:50;;;;;;;9.68;8.82;;;0.40;99.90;;;;;;5038557;28;20738;-79
2022/12/15 09:16:19;;;;;;;9.55;8.55;;;0.30;99.90;;;;;;5035426;28;20733;-80
2022/12/15 09:18:50;;;;;;;10.45;9.38;;;0.40;99.90;;;;;;5046999;28;20191;-80
2022/12/15 09:21:18;;;;;;;9.50;8.60;;;0.40;99.90;;;;;;5042297;28;20238;-81
2022/12/15 09:23:50;;;;;;;9.25;8.38;;;0.40;99.90;;;;;;5051529;28;20194;-80
2022/12/15 09:26:18;;;;;;;13.82;12.63;;;0.40;99.90;;;;;;5034954;28;20231;-81
2022/12/15 09:31:29;;;;;;;17.20;15.55;;;0.40;99.90;;;;;;5037526;28;20806;-80
2022/12/15 09:33:59;;;;;;;14.63;13.23;;;0.50;99.90;;;;;;5042747;28;20200;-80
2022/12/15 09:36:29;;;;;;;13.32;12.02;;;0.50;99.90;;;;;;5038152;28;20219;-80
2022/12/15 09:38:56;;;;;;;14.45;13.02;;;0.50;99.90;;;;;;5053915;28;20240;-79
2022/12/15 09:41:26;;;;;;;14.82;13.32;;;0.40;99.90;;;;;;5066823;28;20213;-81
2022/12/15 09:43:58;;;;;;;15.32;12.65;;;0.40;99.90;;;;;;5044468;28;20294;-80
2022/12/15 09:46:45;;;;;;;13.00;11.68;;;0.50;99.90;;;;;;5037407;28;20246;-79
2022/12/15 09:49:25;;;;;;;12.48;11.18;;;0.50;99.90;;;;;;5043079;28;20264;-81
2022/12/15 09:52:02;;;;;;;11.85;10.65;;;0.60;99.90;;;;;;5015981;28;20224;-81
2022/12/15 09:54:34;;;;;;;11.60;10.50;;;0.60;99.90;;;;;;5037526;28;20693;-79
2022/12/15 09:57:09;;;;;;;10.48;9.50;;;0.60;99.90;;;;;;5034801;28;20279;-79
2022/12/15 09:59:44;;;;;;;10.45;9.45;;;0.60;99.90;;;;;;5042793;28;20668;-80
2022/12/15 10:02:30;;;;;;;10.55;9.55;;;0.60;99.90;;;;;;5044362;28;20469;-80
2022/12/15 10:05:12;;;;;;;10.70;9.60;;;0.70;99.90;;;;;;5045125;28;20223;-80
2022/12/15 10:07:45;;;;;;;10.85;9.85;;;0.70;99.90;;;;;;5045214;28;20223;-79
2022/12/15 10:10:18;;;;;;;9.95;8.95;;;0.70;99.90;;;;;;5045093;28;20202;-79
2022/12/15 10:12:46;;;;;;;9.77;8.93;;;0.70;99.90;;;;;;5038134;28;20666;-79
2022/12/15 10:15:22;;;;;;;11.38;10.13;;;0.80;99.90;;;;;;5038159;28;20716;-79
2022/12/15 10:17:56;;;;;;;10.95;9.85;;;0.90;99.90;;;;;;5037581;28;20226;-79
2022/12/15 10:20:27;;;;;;;12.57;11.30;;;1.00;99.90;;;;;;5045364;28;20945;-79
2022/12/15 10:22:56;;;;;;;11.52;10.50;;;1.10;99.90;;;;;;5036529;28;20855;-78
2022/12/15 10:25:26;;;;;;;10.38;9.45;;;1.10;99.90;;;;;;5030316;28;20226;-77
2022/12/15 10:28:22;;;;;;;11.18;10.13;;;0.90;99.90;;;;;;5041889;28;20969;-78
2022/12/15 10:30:55;;;;;;;11.57;10.00;;;0.90;99.90;;;;;;5045750;28;20234;-78
2022/12/15 10:33:25;;;;;;;11.98;10.80;;;0.80;99.90;;;;;;5039738;28;20198;-78
2022/12/15 10:35:54;;;;;;;12.35;11.07;;;0.90;99.90;;;;;;5058320;28;20235;-79
2022/12/15 10:38:31;;;;;;;12.95;10.93;;;1.00;99.90;;;;;;5032913;28;20206;-79
2022/12/15 10:41:01;;;;;;;12.55;11.05;;;1.10;99.90;;;;;;5037064;28;20793;-77
2022/12/15 10:43:34;;;;;;;10.82;9.82;;;1.20;99.90;;;;;;5041603;28;20191;-78
2022/12/15 10:46:05;;;;;;;12.38;11.05;;;1.30;99.90;;;;;;5038914;28;20771;-79
2022/12/15 10:48:32;;;;;;;11.52;10.38;;;1.40;99.90;;;;;;5037827;28;20215;-77
2022/12/15 10:51:16;;;;;;;12.15;10.85;;;1.50;99.90;;;;;;5036487;28;20216;-78
2022/12/15 10:53:45;;;;;;;12.50;11.30;;;1.60;99.90;;;;;;5033042;28;20194;-77
2022/12/15 10:56:20;;;;;;;11.27;10.18;;;1.60;99.90;;;;;;5033178;28;20228;-78
2022/12/15 10:58:50;;;;;;;12.20;10.93;;;1.50;99.90;;;;;;5035085;28;20190;-77
2022/12/15 11:01:22;;;;;;;10.48;9.48;;;1.40;99.90;;;;;;5031241;28;20306;-77
2022/12/15 11:03:51;;;;;;;10.52;9.50;;;1.40;99.90;;;;;;5043215;28;20660;-77
2022/12/15 11:06:22;;;;;;;9.43;8.52;;;1.30;99.90;;;;;;5030203;28;20314;-77
2022/12/15 11:08:51;;;;;;;10.98;9.98;;;1.40;99.90;;;;;;5027908;28;20218;-77
2022/12/15 11:14:16;;;;;;;10.32;9.20;;;1.40;99.90;;;;;;5033470;28;20841;-76
2022/12/15 11:16:49;;;;;;;10.55;9.55;;;1.50;99.90;;;;;;5037949;28;20708;-77
2022/12/15 11:19:27;;;;;;;10.13;9.23;;;1.40;99.90;;;;;;5042217;28;20194;-78
2022/12/15 11:22:01;;;;;;;8.75;7.88;;;1.40;99.90;;;;;;5017332;28;20247;-78
2022/12/15 11:24:35;;;;;;;9.35;7.57;;;1.40;99.90;;;;;;5013573;28;20226;-77
2022/12/15 11:27:09;;;;;;;9.25;8.45;;;1.50;99.90;;;;;;5006197;28;20273;-77
2022/12/15 11:29:46;;;;;;;11.63;9.63;;;1.50;99.90;;;;;;5027820;28;20658;-77
2022/12/15 11:32:14;;;;;;;10.05;9.15;;;1.50;99.90;;;;;;5009604;28;20230;-76
2022/12/15 11:34:44;;;;;;;9.68;8.68;;;1.50;99.90;;;;;;5023246;28;20223;-76
2022/12/15 11:37:30;;;;;;;10.13;9.13;;;1.40;99.90;;;;;;5035865;28;20219;-76
2022/12/15 11:40:12;;;;;;;9.63;8.63;;;1.50;99.90;;;;;;5030127;28;20696;-76
2022/12/15 11:42:48;;;;;;;10.82;9.73;;;1.50;99.90;;;;;;5027415;28;20218;-76
2022/12/15 11:45:22;;;;;;;10.02;9.13;;;1.50;99.90;;;;;;5026154;28;20864;-77
2022/12/15 11:47:52;;;;;;;10.38;9.48;;;1.50;99.90;;;;;;5024449;28;20515;-77
2022/12/15 11:50:30;;;;;;;10.73;9.77;;;1.50;99.90;;;;;;5033159;28;20195;-77
2022/12/15 11:53:44;;;;;;;11.43;9.63;;;1.40;99.90;;;;;;5031048;28;20298;-77
2022/12/15 11:56:22;;;;;;;10.65;9.50;;;1.40;99.90;;;;;;5012321;28;21004;-76
2022/12/15 11:59:18;;;;;;;9.63;8.73;;;1.40;99.90;;;;;;5047883;28;20936;-76
2022/12/15 12:01:57;;;;;;;8.73;7.93;;;1.40;99.90;;;;;;5035499;28;20219;-76
2022/12/15 12:04:27;;;;;;;10.27;9.00;;;1.50;99.90;;;;;;5028143;28;20631;-77
2022/12/15 12:07:08;;;;;;;10.38;9.43;;;1.60;99.90;;;;;;5039617;28;20226;-76
2022/12/15 12:09:40;;;;;;;10.10;9.15;;;1.50;99.90;;;;;;5046500;28;20206;-76
2022/12/15 12:12:21;;;;;;;9.73;8.85;;;1.50;99.90;;;;;;5031844;28;20791;-77
2022/12/15 12:14:57;;;;;;;10.02;9.02;;;1.50;99.90;;;;;;5031267;28;20225;-76
2022/12/15 12:17:38;;;;;;;10.05;9.05;;;1.50;99.90;;;;;;5036943;28;20236;-75
2022/12/15 12:20:17;;;;;;;10.40;9.35;;;1.60;99.90;;;;;;5042445;28;20198;-73
2022/12/15 12:22:57;;;;;;;9.77;8.77;;;1.60;99.90;;;;;;5060430;28;20223;-75
2022/12/15 12:25:26;;;;;;;10.82;9.82;;;1.50;99.90;;;;;;5037444;28;20219;-76
2022/12/15 12:27:58;;;;;;;10.65;9.65;;;1.50;99.90;;;;;;5036038;28;20211;-74
2022/12/15 12:30:28;;;;;;;10.13;9.23;;;1.50;99.90;;;;;;5040888;28;20656;-76
2022/12/15 12:33:03;;;;;;;11.65;10.52;;;1.40;99.90;;;;;;5027050;28;20287;-76
2022/12/15 12:35:37;;;;;;;11.35;10.25;;;1.40;99.90;;;;;;5046227;28;20219;-76
2022/12/15 12:38:06;;;;;;;10.98;9.88;;;1.40;99.90;;;;;;5044826;28;20673;-75
2022/12/15 12:40:46;;;;;;;9.95;9.07;;;1.40;99.90;;;;;;5043222;28;20258;-74
2022/12/15 12:43:26;;;;;;;10.25;9.25;;;1.50;99.90;;;;;;5043892;28;21822;-76
2022/12/15 12:45:57;;;;;;;10.15;9.25;;;1.50;99.90;;;;;;5037869;28;20219;-76
2022/12/15 12:48:29;;;;;;;10.10;8.85;;;1.50;99.90;;;;;;5047446;28;20279;-75
2022/12/15 12:51:12;;;;;;;12.15;10.73;;;1.50;99.90;;;;;;5048835;28;20222;-72
2022/12/15 12:53:40;;;;;;;11.00;9.85;;;1.50;99.90;;;;;;5042882;28;20194;-74
2022/12/15 12:56:33;;;;;;;16.38;10.90;;;1.50;99.90;;;;;;5048063;28;20307;-73
2022/12/15 12:59:06;;;;;;;15.07;11.10;;;1.60;99.90;;;;;;5049470;28;20195;-73
2022/12/15 13:01:35;;;;;;;12.27;11.00;;;1.60;99.90;;;;;;5043817;28;20224;-75
2022/12/15 13:04:11;;;;;;;13.18;10.98;;;1.60;99.90;;;;;;5037317;28;20198;-76
2022/12/15 13:07:01;;;;;;;12.82;11.13;;;1.60;99.90;;;;;;5046350;28;20234;-76
2022/12/15 13:09:40;;;;;;;10.40;9.30;;;1.60;99.90;;;;;;5042263;28;20230;-76
2022/12/15 13:12:36;;;;;;;9.85;8.65;;;1.60;99.90;;;;;;5042173;28;20310;-75
2022/12/15 13:15:11;;;;;;;11.25;9.77;;;1.50;99.90;;;;;;5045001;28;20229;-75
2022/12/15 13:17:43;;;;;;;11.32;10.13;;;1.50;99.90;;;;;;5053485;28;20324;-75
2022/12/15 13:20:23;;;;;;;11.05;9.95;;;1.40;99.90;;;;;;5040874;28;20206;-75
2022/12/15 13:22:51;;;;;;;10.88;9.85;;;1.30;99.90;;;;;;5025365;28;20211;-76
2022/12/15 13:25:41;;;;;;;11.18;9.80;;;1.30;99.90;;;;;;5025239;28;20690;-76
2022/12/15 13:28:47;;;;;;;10.32;9.23;;;1.30;99.90;;;;;;5016209;28;20204;-75
2022/12/15 13:31:41;;;;;;;10.88;9.07;;;1.30;99.90;;;;;;5027555;28;20223;-75
2022/12/15 13:34:27;;;;;;;9.57;8.68;;;1.30;99.90;;;;;;5029645;28;20200;-75
2022/12/15 13:37:01;;;;;;;8.23;7.47;;;1.30;99.90;;;;;;5023770;28;21022;-76
2022/12/15 13:39:55;;;;;;;9.07;8.32;;;1.40;99.90;;;;;;5025314;28;20195;-76
2022/12/15 13:42:36;;;;;;;8.25;7.45;;;1.40;99.90;;;;;;5028391;28;20241;-75
2022/12/15 13:45:25;;;;;;;7.88;7.28;;;1.40;99.90;;;;;;5019108;28;20211;-73
2022/12/15 13:47:56;;;;;;;8.20;7.40;;;1.50;99.90;;;;;;5046414;28;20233;-73
2022/12/15 13:50:32;;;;;;;8.00;7.25;;;1.50;99.90;;;;;;5050802;28;20663;-76
2022/12/15 13:53:03;;;;;;;8.00;7.30;;;1.60;99.90;;;;;;5043730;28;20910;-76
2022/12/15 13:55:37;;;;;;;8.13;7.43;;;1.60;99.90;;;;;;5048455;28;20671;-76
2022/12/15 13:58:12;;;;;;;9.30;8.30;;;1.70;99.90;;;;;;5052212;28;20206;-76
2022/12/15 14:00:47;;;;;;;9.02;7.53;;;1.70;99.90;;;;;;5042785;28;20825;-76
2022/12/15 14:03:15;;;;;;;8.85;8.02;;;1.80;99.90;;;;;;5050209;28;20283;-74
2022/12/15 14:05:50;;;;;;;8.60;7.70;;;1.80;99.90;;;;;;5050866;28;20226;-73
2022/12/15 14:08:17;;;;;;;9.90;8.68;;;1.80;99.90;;;;;;5052340;28;20217;-73
2022/12/15 14:10:50;;;;;;;10.52;9.50;;;1.80;99.90;;;;;;5060474;28;20218;-73
2022/12/15 14:13:21;;;;;;;11.95;10.18;;;1.80;99.90;;;;;;5048197;28;20221;-73
2022/12/15 14:15:52;;;;;;;12.45;11.23;;;1.80;99.90;;;;;;5039568;28;20265;-72
2022/12/15 14:18:29;;;;;;;13.98;12.35;;;1.70;99.90;;;;;;5044367;28;20199;-75
2022/12/15 14:20:57;;;;;;;13.23;11.77;;;1.70;99.90;;;;;;5048656;28;20217;-72
2022/12/15 14:23:26;;;;;;;12.05;10.75;;;1.70;99.90;;;;;;5055206;28;20202;-74
2022/12/15 14:26:01;;;;;;;12.75;11.35;;;1.60;99.90;;;;;;5048892;28;20234;-76
2022/12/15 14:28:31;;;;;;;21.13;16.60;;;1.60;99.90;;;;;;5047570;28;20221;-75
2022/12/15 14:31:05;;;;;;;19.50;15.45;;;1.50;99.90;;;;;;5050409;28;20305;-76
2022/12/15 14:33:38;;;;;;;16.85;13.60;;;1.60;99.90;;;;;;5046472;28;20187;-75
2022/12/15 14:36:08;;;;;;;14.40;11.98;;;1.60;99.90;;;;;;5041827;28;21055;-73
2022/12/15 14:38:43;;;;;;;14.63;12.02;;;1.60;99.90;;;;;;5046442;28;20703;-73
2022/12/15 14:41:25;;;;;;;13.95;10.93;;;1.60;99.90;;;;;;5043797;28;20229;-73
2022/12/15 14:43:56;;;;;;;11.50;10.30;;;1.50;99.90;;;;;;5044546;28;20217;-74
2022/12/15 14:46:26;;;;;;;12.75;10.50;;;1.50;99.90;;;;;;5036312;28;20246;-75
2022/12/15 14:48:58;;;;;;;11.02;9.73;;;1.40;99.90;;;;;;5044193;28;20218;-75
2022/12/15 14:51:26;;;;;;;16.13;13.13;;;1.30;99.90;;;;;;5043599;28;20292;-76
2022/12/15 14:53:54;;;;;;;14.30;12.63;;;1.30;99.90;;;;;;5050845;28;20202;-74
2022/12/15 14:56:26;;;;;;;14.85;13.20;;;1.30;99.90;;;;;;5042463;28;20639;-75
2022/12/15 14:59:02;;;;;;;17.38;13.48;;;1.40;99.90;;;;;;5042591;28;20912;-75
2022/12/15 15:01:35;;;;;;;22.52;14.98;;;1.40;99.90;;;;;;5043796;28;20640;-75
2022/12/15 15:04:04;;;;;;;18.23;15.13;;;1.40;99.90;;;;;;5059029;28;20191;-75
2022/12/15 15:06:37;;;;;;;21.08;15.55;;;1.40;99.90;;;;;;5049749;28;20222;-75
2022/12/15 15:09:16;;;;;;;18.45;13.77;;;1.40;99.90;;;;;;5047492;28;20215;-75
2022/12/15 15:11:44;;;;;;;18.25;12.93;;;1.50;99.90;;;;;;5047675;28;20226;-75
2022/12/15 15:14:16;;;;;;;15.88;12.13;;;1.50;99.90;;;;;;5051293;28;20203;-74
2022/12/15 15:16:44;;;;;;;15.30;10.60;;;1.50;99.90;;;;;;5042809;28;20222;-75
2022/12/15 15:19:20;;;;;;;11.02;9.88;;;1.50;99.90;;;;;;5049666;28;20211;-75
2022/12/15 15:21:47;;;;;;;16.33;10.73;;;1.50;99.90;;;;;;5045435;28;20217;-75
2022/12/15 15:24:24;;;;;;;15.13;11.30;;;1.50;99.90;;;;;;5056622;28;20198;-75
2022/12/15 15:26:51;;;;;;;18.23;12.43;;;1.40;99.90;;;;;;5037676;28;20218;-75
2022/12/15 15:29:34;;;;;;;12.15;10.65;;;1.40;99.90;;;;;;5049351;28;20225;-74
2022/12/15 15:32:06;;;;;;;12.05;10.85;;;1.40;99.90;;;;;;5042198;28;20317;-74
2022/12/15 15:34:35;;;;;;;14.10;12.27;;;1.40;99.90;;;;;;5040828;28;20740;-74
2022/12/15 15:37:04;;;;;;;11.82;10.63;;;1.50;99.90;;;;;;5039493;28;20648;-75